Time;durP1;ratioP1;P1;durP2;ratioP2;P2;SDS_P1;SDS_P2;PMS_P1;PMS_P2;Temp;Humidity;BMP_temperature;BMP_pressure;BME280_temperature;BME280_humidity;BME280_pressure;Samples;Min_cycle;Max_cycle;Signal;HPM_P1;HPM_P2
2022/12/22 03:26:39;;;;;;;12.93;4.78;;;;;;;1.13;100.00;100781.63;1764141;79;21001;-82
2022/12/22 03:29:24;;;;;;;10.48;5.05;;;;;;;1.16;100.00;100779.04;1769176;79;21501;-83
2022/12/22 03:32:09;;;;;;;14.45;4.95;;;;;;;1.18;100.00;100768.38;1761996;79;21054;-82
2022/12/22 03:34:54;;;;;;;10.98;4.83;;;;;;;1.21;100.00;100777.89;1701491;82;21046;-83
2022/12/22 03:37:38;;;;;;;14.07;5.28;;;;;;;1.20;100.00;100768.17;1701959;82;21050;-83
2022/12/22 03:40:23;;;;;;;10.30;4.60;;;;;;;1.23;100.00;100764.53;1766029;80;20987;-83
2022/12/22 03:46:30;;;;;;;11.55;5.00;;;;;;;1.19;100.00;100761.14;1767373;80;20998;-83
2022/12/22 03:49:15;;;;;;;10.70;5.05;;;;;;;1.20;100.00;100771.69;1702241;82;21001;-83
2022/12/22 03:51:59;;;;;;;10.38;4.80;;;;;;;1.19;100.00;100759.27;1768257;79;21448;-83
2022/12/22 03:54:44;;;;;;;10.03;4.70;;;;;;;1.18;100.00;100755.44;1703263;82;21009;-83
2022/12/22 03:57:29;;;;;;;11.95;5.25;;;;;;;1.18;100.00;100759.47;1759935;79;20997;-83
2022/12/22 04:00:15;;;;;;;10.05;5.17;;;;;;;1.19;100.00;100755.23;1766849;80;20994;-83
2022/12/22 04:02:59;;;;;;;11.22;5.35;;;;;;;1.18;100.00;100756.26;1721090;81;21418;-83
2022/12/22 04:05:46;;;;;;;11.95;4.60;;;;;;;1.18;100.00;100758.95;1769895;79;21489;-83
2022/12/22 04:08:31;;;;;;;10.55;4.92;;;;;;;1.16;100.00;100750.25;1693687;82;21291;-83
2022/12/22 04:14:20;;;;;;;8.85;4.37;;;;;;;1.15;100.00;100755.34;1685321;83;29050;-83
2022/12/22 04:17:05;;;;;;;9.78;4.65;;;;;;;1.14;100.00;100754.19;1719989;82;21106;-83
2022/12/22 04:19:50;;;;;;;14.83;6.03;;;;;;;1.10;100.00;100745.72;1699632;82;21035;-83
2022/12/22 04:22:35;;;;;;;9.20;4.83;;;;;;;1.11;100.00;100740.63;1697935;82;21019;-83
2022/12/22 04:25:19;;;;;;;9.85;4.28;;;;;;;1.11;100.00;100741.98;1697985;83;21043;-83
2022/12/22 04:28:04;;;;;;;10.18;4.78;;;;;;;1.11;100.00;100737.12;1705302;82;21007;-83
2022/12/22 04:30:49;;;;;;;11.70;5.55;;;;;;;1.08;100.00;100735.16;1765885;79;21159;-83
2022/12/22 04:33:34;;;;;;;11.10;4.83;;;;;;;1.03;100.00;100738.17;1760812;79;21022;-83
2022/12/22 04:36:19;;;;;;;11.38;5.75;;;;;;;1.02;100.00;100741.91;1758652;79;21020;-83
2022/12/22 04:39:04;;;;;;;12.75;5.70;;;;;;;0.99;100.00;100755.77;1769740;79;21147;-84
2022/12/22 04:41:48;;;;;;;11.50;5.25;;;;;;;0.97;100.00;100752.48;1763443;80;21022;-83
2022/12/22 04:44:33;;;;;;;10.85;4.85;;;;;;;0.95;100.00;100751.86;1761817;79;21061;-84
2022/12/22 04:47:17;;;;;;;9.70;4.85;;;;;;;0.94;100.00;100740.77;1759362;79;20987;-83
2022/12/22 04:50:02;;;;;;;11.70;5.05;;;;;;;0.89;100.00;100746.80;1759439;80;21066;-83
2022/12/22 04:52:47;;;;;;;13.72;5.10;;;;;;;0.86;100.00;100745.84;1762975;80;21108;-83
2022/12/22 04:55:33;;;;;;;12.60;5.45;;;;;;;0.84;100.00;100744.73;1764737;79;20997;-83
2022/12/22 04:58:17;;;;;;;12.75;4.58;;;;;;;0.83;100.00;100751.12;1763893;81;21092;-83
2022/12/22 05:01:14;;;;;;;14.53;5.85;;;;;;;0.76;100.00;100744.92;1744278;80;21015;-84
2022/12/22 05:03:59;;;;;;;11.88;4.97;;;;;;;0.69;100.00;100745.43;1763613;80;20999;-83
2022/12/22 05:06:43;;;;;;;7.70;4.67;;;;;;;0.69;100.00;100751.34;1764583;79;20986;-83
2022/12/22 05:09:28;;;;;;;10.90;5.33;;;;;;;0.67;100.00;100748.02;1724849;80;21012;-83
2022/12/22 05:15:16;;;;;;;7.92;5.05;;;;;;;0.56;100.00;100752.16;1755674;79;21085;-83
2022/12/22 05:18:01;;;;;;;10.48;5.08;;;;;;;0.51;100.00;100749.27;1769463;80;21551;-83
2022/12/22 05:20:45;;;;;;;13.62;5.42;;;;;;;0.52;100.00;100753.59;1758108;79;20998;-83
2022/12/22 05:23:30;;;;;;;11.60;5.47;;;;;;;0.51;100.00;100750.61;1691953;82;21059;-83
2022/12/22 05:26:15;;;;;;;11.20;5.97;;;;;;;0.48;100.00;100760.44;1706412;82;21015;-83
2022/12/22 05:29:00;;;;;;;11.65;5.72;;;;;;;0.42;100.00;100753.52;1706757;82;21218;-83
2022/12/22 05:31:44;;;;;;;12.85;5.00;;;;;;;0.46;100.00;100762.50;1706896;82;21007;-83
2022/12/22 05:34:28;;;;;;;10.35;5.12;;;;;;;0.46;100.00;100771.91;1700967;83;21070;-83
2022/12/22 05:37:13;;;;;;;12.53;5.40;;;;;;;0.42;100.00;100779.05;1698571;82;21030;-84
2022/12/22 05:40:00;;;;;;;9.78;5.00;;;;;;;0.38;100.00;100781.83;1703450;83;21487;-83
2022/12/22 05:42:45;;;;;;;12.00;5.28;;;;;;;0.40;100.00;100783.80;1701714;83;20950;-83
2022/12/22 05:45:37;;;;;;;9.45;4.58;;;;;;;0.39;100.00;100788.84;1699246;82;21015;-85
2022/12/22 05:48:27;;;;;;;11.33;5.62;;;;;;;0.34;100.00;100787.28;1697132;82;21377;-84
2022/12/22 05:51:11;;;;;;;13.50;5.70;;;;;;;0.31;100.00;100793.60;1692376;82;21028;-83
2022/12/22 05:53:55;;;;;;;11.10;4.90;;;;;;;0.33;100.00;100794.23;1729156;82;21085;-83
2022/12/22 08:04:38;;;;;;;13.30;6.67;;;;;;;1.15;100.00;100840.13;1818250;77;28963;-79
2022/12/22 08:07:22;;;;;;;12.88;6.03;;;;;;;1.32;100.00;100853.19;1723813;80;21073;-82
2022/12/22 08:10:08;;;;;;;14.78;5.97;;;;;;;1.52;100.00;100853.98;1734541;81;21025;-82
2022/12/22 08:12:52;;;;;;;12.40;5.42;;;;;;;1.74;100.00;100842.95;1714306;82;21045;-82
2022/12/22 08:15:39;;;;;;;15.90;6.10;;;;;;;1.91;100.00;100829.33;1719525;81;21017;-83
2022/12/22 08:18:25;;;;;;;13.18;5.83;;;;;;;2.07;100.00;100824.78;1729957;82;21085;-82
2022/12/22 08:21:10;;;;;;;14.90;6.28;;;;;;;2.19;100.00;100822.25;1728569;80;21093;-83
2022/12/22 08:23:55;;;;;;;13.58;5.95;;;;;;;2.33;100.00;100819.80;1734991;82;21650;-83
2022/12/22 08:26:42;;;;;;;13.50;5.95;;;;;;;2.41;100.00;100812.50;1729630;80;21064;-83
2022/12/22 08:29:37;;;;;;;13.93;6.17;;;;;;;2.47;100.00;100819.17;1727273;82;21009;-83
2022/12/22 08:32:22;;;;;;;11.45;6.05;;;;;;;2.50;100.00;100805.28;1719647;82;21049;-83
2022/12/22 08:35:08;;;;;;;11.78;5.28;;;;;;;2.56;100.00;100813.84;1725420;82;21512;-83
2022/12/22 08:37:52;;;;;;;11.55;5.35;;;;;;;2.57;100.00;100800.67;1732868;82;20953;-83
2022/12/22 08:40:37;;;;;;;9.73;5.92;;;;;;;2.58;100.00;100802.84;1710200;82;21513;-82
2022/12/22 08:43:25;;;;;;;13.15;5.62;;;;;;;2.61;100.00;100804.27;1733427;81;21061;-83
2022/12/22 08:46:10;;;;;;;15.95;5.10;;;;;;;2.68;100.00;100795.61;1734827;82;21021;-84
2022/12/22 08:48:55;;;;;;;15.10;6.00;;;;;;;2.70;100.00;100793.53;1717391;82;21150;-83
2022/12/22 08:51:40;;;;;;;15.95;5.95;;;;;;;2.73;100.00;100789.03;1719193;82;21049;-83
2022/12/22 08:54:24;;;;;;;13.95;5.62;;;;;;;2.77;100.00;100787.56;1717491;82;21017;-84
2022/12/22 08:57:09;;;;;;;14.90;6.15;;;;;;;2.82;100.00;100776.93;1714778;82;21052;-83
2022/12/22 08:59:53;;;;;;;13.10;5.47;;;;;;;2.86;100.00;100771.38;1715081;82;21100;-84
2022/12/22 09:02:38;;;;;;;10.85;5.65;;;;;;;2.91;100.00;100774.23;1726544;81;21104;-83
2022/12/22 09:05:23;;;;;;;13.35;6.35;;;;;;;2.98;100.00;100769.61;1733441;81;21451;-83
2022/12/22 09:08:08;;;;;;;13.53;5.87;;;;;;;3.00;100.00;100766.17;1724596;82;21025;-83
2022/12/22 09:10:53;;;;;;;14.28;5.80;;;;;;;3.05;100.00;100768.73;1738054;81;21044;-84
2022/12/22 09:13:38;;;;;;;14.75;6.78;;;;;;;3.07;100.00;100780.15;1717526;82;21032;-84
2022/12/22 09:16:31;;;;;;;14.78;6.55;;;;;;;3.06;100.00;100782.00;1711164;83;21461;-84
2022/12/22 09:19:16;;;;;;;16.17;6.00;;;;;;;3.04;100.00;100780.56;1747623;81;21041;-84
2022/12/22 09:22:00;;;;;;;16.67;6.25;;;;;;;3.03;100.00;100769.48;1719013;82;21086;-84
2022/12/22 09:24:46;;;;;;;17.25;6.83;;;;;;;3.00;100.00;100766.70;1698326;83;20995;-84
2022/12/22 09:27:31;;;;;;;15.38;6.53;;;;;;;2.99;100.00;100761.83;1692329;83;21051;-84
2022/12/22 09:30:16;;;;;;;15.05;6.28;;;;;;;2.93;100.00;100764.05;1728572;82;21025;-84
2022/12/22 09:33:02;;;;;;;15.15;6.75;;;;;;;2.86;100.00;100755.18;1716541;82;21103;-84
2022/12/22 09:35:46;;;;;;;15.30;6.15;;;;;;;2.85;100.00;100758.94;1716697;83;21056;-84
2022/12/22 09:38:32;;;;;;;14.25;5.92;;;;;;;2.83;100.00;100762.91;1726417;81;21154;-84
2022/12/22 09:41:22;;;;;;;15.03;6.42;;;;;;;2.80;100.00;100769.04;1738672;82;21475;-84
2022/12/22 09:44:22;;;;;;;11.83;6.08;;;;;;;2.81;100.00;100769.86;1702065;82;20970;-84
2022/12/22 09:47:36;;;;;;;15.98;6.12;;;;;;;2.82;100.00;100767.48;1724280;81;20997;-84
2022/12/22 09:50:25;;;;;;;14.20;6.20;;;;;;;2.83;100.00;100761.02;1734842;81;21053;-84
2022/12/22 09:53:22;;;;;;;13.18;6.05;;;;;;;2.85;100.00;100758.12;1734311;81;21049;-83
2022/12/22 09:56:11;;;;;;;14.13;6.50;;;;;;;2.89;100.00;100763.36;1708513;81;21001;-84
2022/12/22 09:58:57;;;;;;;17.37;6.60;;;;;;;2.92;100.00;100766.45;1702131;81;21129;-84
2022/12/22 10:01:52;;;;;;;12.73;6.15;;;;;;;2.93;100.00;100753.25;1711649;83;21033;-84
2022/12/22 10:04:59;;;;;;;14.20;6.37;;;;;;;2.95;100.00;100756.56;1722593;81;20997;-84
2022/12/22 10:07:43;;;;;;;14.53;6.25;;;;;;;2.96;100.00;100762.78;1725547;81;21510;-84
2022/12/22 10:10:30;;;;;;;14.55;6.22;;;;;;;2.93;100.00;100753.25;1721500;81;21009;-87
2022/12/22 10:13:17;;;;;;;14.05;6.67;;;;;;;2.91;100.00;100751.82;1708272;82;21551;-84
2022/12/22 10:16:03;;;;;;;15.45;5.75;;;;;;;2.86;100.00;100757.88;1724352;80;20993;-83
2022/12/22 10:19:03;;;;;;;14.23;6.62;;;;;;;2.82;100.00;100749.94;1686698;81;21029;-83
2022/12/22 10:21:50;;;;;;;13.72;6.08;;;;;;;2.81;100.00;100760.41;1738853;81;21017;-84
2022/12/22 10:24:34;;;;;;;14.18;6.55;;;;;;;2.79;100.00;100754.41;1677346;82;21539;-84
2022/12/22 10:27:21;;;;;;;16.87;6.80;;;;;;;2.78;100.00;100758.16;1716818;82;21475;-84
2022/12/22 10:30:24;;;;;;;18.92;6.70;;;;;;;2.82;100.00;100755.34;1722856;81;21487;-84
2022/12/22 10:33:15;;;;;;;15.43;6.78;;;;;;;2.83;100.00;100752.93;1713884;82;21440;-84
2022/12/22 10:36:01;;;;;;;12.40;5.97;;;;;;;2.92;100.00;100757.01;1709290;81;21021;-84
2022/12/22 10:38:56;;;;;;;15.15;6.47;;;;;;;2.92;100.00;100757.01;1720870;81;21081;-84
2022/12/22 10:41:43;;;;;;;13.70;6.62;;;;;;;2.96;100.00;100751.98;1702298;82;21082;-84
2022/12/22 10:44:33;;;;;;;15.40;6.80;;;;;;;2.98;100.00;100746.66;1728418;81;20977;-84
2022/12/22 10:47:20;;;;;;;14.65;6.53;;;;;;;3.03;100.00;100743.83;1714890;82;21065;-84
2022/12/22 10:50:07;;;;;;;12.55;5.83;;;;;;;3.07;100.00;100738.30;1713700;81;21049;-84
2022/12/22 10:52:55;;;;;;;14.65;6.95;;;;;;;3.10;100.00;100726.52;1685816;82;21057;-81
2022/12/22 10:55:39;;;;;;;12.63;6.35;;;;;;;3.11;100.00;100721.93;1722106;81;21005;-81
2022/12/22 10:58:24;;;;;;;13.85;6.70;;;;;;;3.12;100.00;100729.00;1785152;80;21062;-82
2022/12/22 11:01:09;;;;;;;12.88;6.22;;;;;;;3.15;100.00;100725.84;1707366;82;20998;-82
2022/12/22 11:03:53;;;;;;;19.32;7.40;;;;;;;3.16;100.00;100720.20;1702585;81;21116;-82
2022/12/22 11:06:38;;;;;;;17.00;6.55;;;;;;;3.19;100.00;100717.08;1738955;81;20996;-82
2022/12/22 11:09:28;;;;;;;10.50;5.78;;;;;;;3.24;100.00;100721.81;1760823;80;21052;-82
2022/12/22 11:12:37;;;;;;;15.60;6.08;;;;;;;3.25;100.00;100707.25;1679912;82;21526;-83
2022/12/22 11:15:38;;;;;;;14.38;6.22;;;;;;;3.25;100.00;100715.34;1730580;82;21481;-83
2022/12/22 11:18:55;;;;;;;13.18;6.25;;;;;;;3.33;100.00;100712.34;1715509;81;21044;-83
2022/12/22 11:22:25;;;;;;;13.18;6.08;;;;;;;3.34;100.00;100712.66;1726229;81;21024;-83
2022/12/22 11:25:35;;;;;;;13.43;5.78;;;;;;;3.32;100.00;100705.30;1751267;81;21007;-83
2022/12/22 11:28:42;;;;;;;12.75;5.25;;;;;;;3.28;100.00;100716.24;1701832;81;21050;-84
2022/12/22 11:32:13;;;;;;;14.28;6.45;;;;;;;3.29;100.00;100709.81;1736312;81;20973;-83
2022/12/22 11:35:31;;;;;;;11.68;6.22;;;;;;;3.29;100.00;100708.45;1705500;82;20996;-83
2022/12/22 11:38:49;;;;;;;11.83;6.03;;;;;;;3.24;100.00;100705.61;1708806;82;21012;-84
2022/12/22 11:41:43;;;;;;;15.72;5.65;;;;;;;3.22;100.00;100710.41;1707653;82;21088;-84
2022/12/22 11:45:04;;;;;;;14.53;6.40;;;;;;;3.22;100.00;100713.10;1723871;81;21585;-85
2022/12/22 11:47:55;;;;;;;12.28;5.83;;;;;;;3.21;100.00;100709.58;1739401;81;20988;-84
2022/12/22 11:50:43;;;;;;;13.53;6.60;;;;;;;3.18;100.00;100713.23;1746894;81;21881;-85
2022/12/22 11:53:48;;;;;;;13.90;6.08;;;;;;;3.12;100.00;100708.22;1699475;83;21023;-84
2022/12/22 11:56:43;;;;;;;13.05;6.50;;;;;;;3.09;100.00;100705.97;1732893;82;21112;-84
2022/12/22 14:04:20;;;;;;;12.10;6.33;;;;;;;0.49;100.00;100735.20;1845401;76;28889;-84
2022/12/22 14:07:17;;;;;;;23.47;9.95;;;;;;;0.46;100.00;100735.61;1821007;78;20973;-85
2022/12/22 14:10:03;;;;;;;16.82;7.97;;;;;;;0.53;100.00;100732.42;1750097;81;21491;-84
2022/12/22 14:12:47;;;;;;;14.55;6.67;;;;;;;0.60;100.00;100733.25;1747672;80;21039;-84
2022/12/22 14:15:33;;;;;;;18.60;5.92;;;;;;;0.68;100.00;100739.75;1711743;82;21047;-84
2022/12/22 14:18:20;;;;;;;14.07;5.80;;;;;;;0.76;100.00;100731.47;1756356;81;21009;-84
2022/12/22 14:21:06;;;;;;;13.55;5.85;;;;;;;0.80;100.00;100731.89;1755999;80;21593;-84
2022/12/22 14:23:50;;;;;;;12.63;5.85;;;;;;;0.88;100.00;100728.98;1753424;81;21054;-84
2022/12/22 14:26:36;;;;;;;13.40;5.60;;;;;;;0.91;100.00;100722.36;1753324;81;21033;-84
2022/12/22 14:29:24;;;;;;;11.30;6.05;;;;;;;0.97;100.00;100721.53;1731770;82;20998;-84
2022/12/22 14:32:08;;;;;;;16.00;6.12;;;;;;;0.99;100.00;100720.78;1753396;81;21078;-84
2022/12/22 14:34:53;;;;;;;13.85;6.50;;;;;;;1.07;100.00;100727.31;1754402;81;21007;-84
2022/12/22 14:37:37;;;;;;;12.05;5.78;;;;;;;1.13;100.00;100737.22;1725564;83;21415;-84
2022/12/22 14:40:37;;;;;;;13.55;6.08;;;;;;;1.21;100.00;100731.63;1725662;83;20989;-84
2022/12/22 14:43:26;;;;;;;12.58;6.30;;;;;;;1.27;100.00;100733.47;1696730;84;21044;-84
2022/12/22 14:46:11;;;;;;;10.53;5.78;;;;;;;1.35;100.00;100727.55;1745149;81;21408;-84
2022/12/22 14:48:59;;;;;;;8.60;5.12;;;;;;;1.40;100.00;100716.97;1770184;80;21173;-84
2022/12/22 14:51:59;;;;;;;12.45;5.53;;;;;;;1.43;100.00;100715.19;1756573;81;21004;-86
2022/12/22 14:54:46;;;;;;;11.00;5.22;;;;;;;1.47;100.00;100717.77;1737897;81;20961;-85
2022/12/22 14:57:38;;;;;;;7.67;4.47;;;;;;;1.57;100.00;100715.45;1738857;82;21074;-85
2022/12/22 15:00:30;;;;;;;7.92;4.60;;;;;;;1.67;100.00;100707.73;1743357;81;21014;-85
2022/12/22 15:03:34;;;;;;;13.75;6.15;;;;;;;1.70;100.00;100693.83;1698947;81;21507;-85
2022/12/22 15:06:38;;;;;;;10.90;5.85;;;;;;;1.72;100.00;100679.62;1714598;82;21016;-86
2022/12/22 15:09:24;;;;;;;10.55;5.22;;;;;;;1.74;100.00;100679.42;1697079;82;20985;-85
2022/12/22 15:12:13;;;;;;;11.48;5.33;;;;;;;1.78;100.00;100682.50;1725695;81;21110;-86
2022/12/22 15:14:59;;;;;;;11.48;5.65;;;;;;;1.79;100.00;100690.38;1729545;82;20992;-85
2022/12/22 15:17:46;;;;;;;10.10;5.37;;;;;;;1.81;100.00;100698.26;1737944;81;21073;-85
2022/12/22 15:20:30;;;;;;;15.08;5.70;;;;;;;1.85;100.00;100694.07;1737135;82;20990;-85
2022/12/22 15:23:15;;;;;;;9.83;5.17;;;;;;;1.88;100.00;100703.06;1728943;82;21034;-85
2022/12/22 15:26:00;;;;;;;10.18;5.20;;;;;;;1.91;100.00;100706.70;1714530;82;21069;-85
2022/12/22 15:28:45;;;;;;;9.13;5.45;;;;;;;1.93;100.00;100710.01;1709999;83;21388;-85
2022/12/22 15:31:29;;;;;;;10.40;4.35;;;;;;;1.97;100.00;100702.30;1701264;82;21073;-85
2022/12/22 15:34:26;;;;;;;11.90;5.45;;;;;;;2.00;100.00;100706.72;1703878;82;20979;-85
2022/12/22 15:37:11;;;;;;;9.23;5.12;;;;;;;2.02;100.00;100700.60;1710033;82;20958;-85
2022/12/22 15:39:56;;;;;;;10.40;5.33;;;;;;;2.06;100.00;100685.66;1708617;83;21051;-85
2022/12/22 15:42:40;;;;;;;9.50;5.15;;;;;;;2.09;100.00;100674.44;1708210;82;21464;-85
2022/12/22 15:45:25;;;;;;;9.93;4.65;;;;;;;2.11;100.00;100693.92;1690062;83;20917;-85
2022/12/22 15:48:14;;;;;;;9.28;5.08;;;;;;;2.10;100.00;100693.63;1710580;82;21048;-86
2022/12/22 15:50:59;;;;;;;12.50;5.90;;;;;;;2.15;100.00;100699.19;1691766;83;21052;-86
2022/12/22 15:53:44;;;;;;;10.50;4.87;;;;;;;2.18;100.00;100694.37;1710033;82;21073;-86
2022/12/22 15:56:30;;;;;;;13.30;5.40;;;;;;;2.21;100.00;100684.53;1718724;82;21088;-85
2022/12/22 15:59:24;;;;;;;9.70;4.87;;;;;;;2.24;100.00;100682.73;1731668;82;21037;-85
2022/12/22 16:02:12;;;;;;;11.68;5.40;;;;;;;2.21;100.00;100693.44;1709327;82;21009;-85
2022/12/22 16:04:57;;;;;;;11.35;4.42;;;;;;;2.29;100.00;100689.65;1724752;81;20995;-85
2022/12/22 16:07:42;;;;;;;12.28;5.40;;;;;;;2.30;100.00;100688.59;1724446;81;21034;-86
2022/12/22 16:10:31;;;;;;;7.97;4.10;;;;;;;2.33;100.00;100693.56;1724752;82;21418;-85
2022/12/22 16:13:18;;;;;;;8.05;4.53;;;;;;;2.36;100.00;100687.73;1725251;81;21006;-86
2022/12/22 16:16:04;;;;;;;9.10;5.08;;;;;;;2.48;100.00;100694.59;1725890;82;20997;-85
2022/12/22 16:18:49;;;;;;;7.78;4.87;;;;;;;2.45;100.00;100702.61;1723464;82;21011;-86
2022/12/22 16:21:34;;;;;;;10.75;4.85;;;;;;;2.42;100.00;100698.97;1683235;82;21328;-84
2022/12/22 16:24:32;;;;;;;7.17;3.95;;;;;;;2.43;100.00;100697.95;1703285;83;21046;-85
2022/12/22 16:27:17;;;;;;;7.42;3.90;;;;;;;2.48;100.00;100696.77;1708292;82;20995;-85
2022/12/22 16:30:02;;;;;;;9.53;4.37;;;;;;;2.55;100.00;100697.53;1751400;81;21048;-86
2022/12/22 16:32:47;;;;;;;7.25;4.22;;;;;;;2.56;100.00;100699.70;1712861;81;21438;-85
2022/12/22 16:35:33;;;;;;;7.58;4.33;;;;;;;2.55;100.00;100694.02;1732371;81;21043;-85
2022/12/22 16:38:17;;;;;;;11.20;4.37;;;;;;;2.55;100.00;100694.84;1722548;80;21052;-85
2022/12/22 16:41:02;;;;;;;8.35;4.22;;;;;;;2.59;100.00;100698.73;1750774;81;21500;-85
2022/12/22 16:43:47;;;;;;;6.80;4.53;;;;;;;2.60;100.00;100699.58;1734406;81;21572;-85
2022/12/22 16:46:32;;;;;;;6.40;3.42;;;;;;;2.65;100.00;100694.34;1722725;82;21427;-85
2022/12/22 16:49:17;;;;;;;7.75;4.60;;;;;;;2.65;100.00;100693.52;1661657;84;21014;-85
2022/12/22 16:52:03;;;;;;;8.95;4.80;;;;;;;2.65;100.00;100693.52;1725309;83;21021;-85
2022/12/22 16:54:47;;;;;;;9.70;4.60;;;;;;;2.68;100.00;100687.67;1722206;82;21014;-85
2022/12/22 16:57:32;;;;;;;7.87;4.50;;;;;;;2.66;100.00;100687.06;1708067;83;21014;-85
2022/12/22 17:00:20;;;;;;;8.53;4.45;;;;;;;2.67;100.00;100703.55;1753742;81;21041;-85
2022/12/22 17:03:26;;;;;;;8.05;4.35;;;;;;;2.67;100.00;100691.41;1704883;81;21510;-85
2022/12/22 17:06:10;;;;;;;6.45;3.85;;;;;;;2.73;100.00;100696.75;1751331;81;21025;-85
2022/12/22 17:08:55;;;;;;;8.53;4.55;;;;;;;2.76;100.00;100699.53;1713601;82;21094;-85
2022/12/22 17:11:40;;;;;;;7.92;3.98;;;;;;;2.75;100.00;100691.97;1752146;81;20998;-85
2022/12/22 17:14:34;;;;;;;7.60;4.75;;;;;;;2.79;100.00;100695.03;1724537;82;21042;-85
2022/12/22 17:17:22;;;;;;;7.72;3.95;;;;;;;2.76;100.00;100693.60;1723321;82;21015;-84
2022/12/22 17:20:15;;;;;;;8.28;4.30;;;;;;;2.79;100.00;100678.84;1725215;82;21426;-84
2022/12/22 17:23:01;;;;;;;9.15;4.83;;;;;;;2.75;100.00;100685.75;1706736;83;21080;-85
2022/12/22 17:25:46;;;;;;;7.72;4.22;;;;;;;2.70;100.00;100693.69;1725206;82;21402;-85
2022/12/22 17:28:31;;;;;;;7.47;3.95;;;;;;;2.72;100.00;100699.66;1753654;81;20993;-85
2022/12/22 17:31:18;;;;;;;9.25;4.80;;;;;;;2.72;100.00;100688.86;1753212;80;21053;-85
2022/12/22 17:34:15;;;;;;;10.28;4.55;;;;;;;2.70;100.00;100695.03;1729842;81;21006;-85
2022/12/22 17:37:00;;;;;;;6.70;4.53;;;;;;;2.69;100.00;100700.11;1753489;81;21076;-85
2022/12/22 17:39:45;;;;;;;9.63;5.05;;;;;;;2.71;100.00;100695.33;1695703;81;21417;-85
2022/12/22 17:42:30;;;;;;;12.10;4.78;;;;;;;2.73;100.00;100701.33;1719457;83;20971;-84
2022/12/22 17:45:25;;;;;;;12.70;6.62;;;;;;;2.75;100.00;100704.64;1724545;82;21019;-85
2022/12/22 17:48:08;;;;;;;10.70;5.53;;;;;;;2.79;100.00;100693.69;1722274;81;21509;-86
2022/12/22 17:50:53;;;;;;;13.13;6.70;;;;;;;2.82;100.00;100698.66;1725166;82;21022;-85
2022/12/22 17:53:37;;;;;;;10.00;4.50;;;;;;;2.83;100.00;100704.34;1725337;82;21436;-85
2022/12/22 17:56:24;;;;;;;9.78;4.85;;;;;;;2.85;100.00;100694.16;1723892;82;21054;-85
2022/12/22 20:05:26;;;;;;;20.35;9.03;;;;;;;1.08;100.00;100677.28;1827530;77;28908;-85
2022/12/22 20:08:11;;;;;;;27.02;12.25;;;;;;;1.24;100.00;100676.54;1805265;78;20994;-86
2022/12/22 20:10:55;;;;;;;38.02;15.90;;;;;;;1.37;100.00;100677.01;1775928;77;21029;-87
2022/12/22 20:13:40;;;;;;;38.73;16.35;;;;;;;1.50;100.00;100676.41;1765860;79;21039;-86
2022/12/22 20:16:24;;;;;;;20.70;11.08;;;;;;;1.56;100.00;100672.55;1767498;79;21072;-86
2022/12/22 20:19:13;;;;;;;14.43;7.97;;;;;;;1.62;100.00;100671.72;1763655;79;21081;-86
2022/12/22 20:21:57;;;;;;;13.70;7.10;;;;;;;1.70;100.00;100672.27;1774045;78;21036;-86
2022/12/22 20:24:43;;;;;;;13.55;7.22;;;;;;;1.72;100.00;100662.11;1755226;78;20970;-87
2022/12/22 20:27:33;;;;;;;13.95;6.25;;;;;;;1.81;100.00;100663.23;1764767;81;21814;-87
2022/12/22 20:30:27;;;;;;;11.63;5.83;;;;;;;1.88;100.00;100662.64;1766286;78;21476;-86
2022/12/22 20:33:14;;;;;;;11.88;5.92;;;;;;;1.98;100.00;100652.73;1764142;78;21042;-86
2022/12/22 20:35:59;;;;;;;7.85;5.80;;;;;;;2.04;100.00;100664.83;1777089;78;21481;-86
2022/12/22 20:38:44;;;;;;;10.85;6.05;;;;;;;2.05;100.00;100666.99;1783226;78;21409;-87
2022/12/22 20:41:29;;;;;;;12.82;6.62;;;;;;;2.13;100.00;100667.57;1776669;79;20991;-86
2022/12/22 20:44:13;;;;;;;10.55;6.28;;;;;;;2.14;100.00;100663.00;1777772;79;21126;-87
2022/12/22 20:46:58;;;;;;;9.33;5.87;;;;;;;2.27;100.00;100663.41;1743408;80;20987;-86
2022/12/22 20:49:43;;;;;;;9.35;5.53;;;;;;;2.33;100.00;100662.03;1730025;81;21464;-86
2022/12/22 20:52:28;;;;;;;9.55;5.40;;;;;;;2.39;100.00;100660.31;1714396;82;21470;-87
2022/12/22 20:55:16;;;;;;;8.98;5.28;;;;;;;2.47;100.00;100664.07;1712259;81;21058;-87
2022/12/22 20:58:01;;;;;;;14.60;5.47;;;;;;;2.52;100.00;100653.47;1769009;79;21035;-86
2022/12/22 21:00:45;;;;;;;7.12;4.05;;;;;;;2.62;100.00;100646.73;1773809;79;21511;-87
2022/12/22 21:03:29;;;;;;;9.50;5.45;;;;;;;2.69;100.00;100638.05;1772918;79;20971;-87
2022/12/22 21:06:29;;;;;;;7.40;4.47;;;;;;;2.73;100.00;100642.78;1774629;79;21027;-86
2022/12/22 21:09:15;;;;;;;9.75;4.85;;;;;;;2.76;100.00;100638.81;1770373;79;20967;-88
2022/12/22 21:12:01;;;;;;;6.78;4.22;;;;;;;2.86;100.00;100639.12;1780228;79;21006;-87
2022/12/22 21:14:45;;;;;;;8.98;4.78;;;;;;;2.97;100.00;100640.27;1767798;79;20943;-86
2022/12/22 21:17:30;;;;;;;8.23;4.75;;;;;;;3.04;100.00;100635.59;1718864;82;21070;-86
2022/12/22 21:20:21;;;;;;;11.80;4.72;;;;;;;3.07;100.00;100638.39;1723793;82;21015;-87
2022/12/22 21:23:05;;;;;;;9.38;4.95;;;;;;;3.06;100.00;100640.25;1729374;82;21475;-87
2022/12/22 21:25:51;;;;;;;8.10;4.62;;;;;;;3.14;100.00;100629.16;1717805;82;21442;-87
2022/12/22 21:28:36;;;;;;;9.65;4.83;;;;;;;3.21;100.00;100633.12;1732298;81;21030;-86
2022/12/22 21:31:20;;;;;;;8.18;4.62;;;;;;;3.20;100.00;100634.18;1718864;81;21003;-87
2022/12/22 21:34:05;;;;;;;9.60;4.90;;;;;;;3.23;100.00;100627.78;1736002;81;21035;-87
2022/12/22 21:36:55;;;;;;;7.70;4.83;;;;;;;3.22;100.00;100621.28;1713613;81;20984;-87
2022/12/22 21:39:43;;;;;;;8.78;4.78;;;;;;;3.28;100.00;100616.84;1703046;81;21031;-88
2022/12/22 21:42:28;;;;;;;8.55;5.60;;;;;;;3.30;100.00;100619.61;1695298;82;21465;-86
2022/12/22 21:45:14;;;;;;;9.30;5.33;;;;;;;3.38;100.00;100611.72;1727304;82;21051;-87
2022/12/22 21:47:59;;;;;;;11.68;5.78;;;;;;;3.43;100.00;100618.61;1750328;79;21023;-87
2022/12/22 21:50:45;;;;;;;10.98;5.87;;;;;;;3.47;100.00;100620.34;1721817;82;21019;-87
2022/12/22 21:53:29;;;;;;;9.95;5.58;;;;;;;3.50;100.00;100617.18;1772324;79;21106;-87
2022/12/22 21:56:17;;;;;;;10.03;5.80;;;;;;;3.50;100.00;100619.34;1783313;79;21407;-86
2022/12/22 21:59:01;;;;;;;12.35;6.30;;;;;;;3.55;100.00;100610.56;1768648;79;21059;-86
2022/12/22 22:01:46;;;;;;;11.10;6.05;;;;;;;3.61;100.00;100610.98;1714278;82;20971;-87
2022/12/22 22:04:32;;;;;;;12.85;6.20;;;;;;;3.60;100.00;100608.00;1736277;80;21035;-87
2022/12/22 22:07:16;;;;;;;10.45;5.95;;;;;;;3.59;100.00;100605.01;1787122;79;20985;-87
2022/12/22 22:10:00;;;;;;;11.15;5.90;;;;;;;3.60;100.00;100599.36;1772190;79;21339;-87
2022/12/22 22:12:45;;;;;;;13.98;6.47;;;;;;;3.57;100.00;100605.76;1775818;79;21476;-87
2022/12/22 22:15:30;;;;;;;13.48;6.08;;;;;;;3.63;100.00;100599.42;1788731;79;21205;-87
2022/12/22 22:18:17;;;;;;;12.78;5.90;;;;;;;3.61;100.00;100602.87;1731255;80;21027;-87
2022/12/22 22:21:04;;;;;;;8.85;5.05;;;;;;;3.62;100.00;100597.25;1705623;81;21454;-87
2022/12/22 22:23:49;;;;;;;10.58;5.08;;;;;;;3.64;100.00;100592.98;1767086;79;22020;-87
2022/12/22 22:26:33;;;;;;;13.55;5.60;;;;;;;3.66;100.00;100589.53;1776943;79;21536;-88
2022/12/22 22:29:18;;;;;;;11.03;6.12;;;;;;;3.68;100.00;100586.58;1779145;79;21486;-87
2022/12/22 22:32:02;;;;;;;12.15;6.35;;;;;;;3.64;100.00;100575.41;1793526;79;20956;-87
2022/12/22 22:34:47;;;;;;;10.85;6.22;;;;;;;3.66;100.00;100577.36;1795519;79;21003;-87
2022/12/22 22:37:31;;;;;;;15.45;7.00;;;;;;;3.61;100.00;100578.55;1790411;78;21034;-87
2022/12/22 22:40:19;;;;;;;11.38;6.12;;;;;;;3.59;100.00;100577.98;1792518;78;20955;-87
2022/12/22 22:43:03;;;;;;;10.48;5.85;;;;;;;3.58;100.00;100579.02;1794808;79;20987;-87
2022/12/22 22:45:48;;;;;;;10.05;5.37;;;;;;;3.57;100.00;100578.73;1795422;79;21043;-87
2022/12/22 22:48:34;;;;;;;11.38;6.17;;;;;;;3.62;100.00;100572.11;1787403;79;21445;-87